createdAt,value
2016-05-28T00:00:15.329Z,998.5
2016-05-28T00:01:15.348Z,998.49
2016-05-28T00:02:15.366Z,998.47
2016-05-28T00:03:15.400Z,998.45
2016-05-28T00:04:15.402Z,998.48
2016-05-28T00:05:15.437Z,998.51
2016-05-28T00:06:15.455Z,998.48
2016-05-28T00:07:15.457Z,998.49
2016-05-28T00:08:15.493Z,998.49
2016-05-28T00:09:15.510Z,998.47
2016-05-28T00:10:15.528Z,998.47
2016-05-28T00:11:15.547Z,998.43
2016-05-28T00:12:15.565Z,998.53
2016-05-28T00:13:15.584Z,998.52
2016-05-28T00:14:15.618Z,998.47
2016-05-28T00:15:15.620Z,998.49
2016-05-28T00:16:15.639Z,998.49
2016-05-28T00:17:15.656Z,998.49
2016-05-28T00:18:15.675Z,998.47
2016-05-28T00:19:15.709Z,998.46
2016-05-28T00:20:16.556Z,998.48
2016-05-28T00:21:15.745Z,998.45
2016-05-28T00:22:15.764Z,998.46
2016-05-28T00:23:15.783Z,998.47
2016-05-28T00:24:15.801Z,998.49
2016-05-28T00:25:15.819Z,998.47
2016-05-28T00:26:15.836Z,998.49
2016-05-28T00:27:15.856Z,998.49
2016-05-28T00:28:15.874Z,998.49
2016-05-28T00:29:15.892Z,998.5
2016-05-28T00:30:15.911Z,998.51
2016-05-28T00:31:15.929Z,998.49
2016-05-28T00:32:15.947Z,998.54
2016-05-28T00:33:15.981Z,998.56
2016-05-28T00:34:15.983Z,998.58
2016-05-28T00:35:16.018Z,998.61
2016-05-28T00:36:16.036Z,998.66
2016-05-28T00:37:16.055Z,998.68
2016-05-28T00:38:16.073Z,998.69
2016-05-28T00:39:16.091Z,998.67
2016-05-28T00:40:16.109Z,998.7
2016-05-28T00:41:16.127Z,998.67
2016-05-28T00:42:16.130Z,998.63
2016-05-28T00:43:16.165Z,998.61
2016-05-28T00:44:16.198Z,998.57
2016-05-28T00:45:16.201Z,998.53
2016-05-28T00:46:16.220Z,998.46
2016-05-28T00:47:16.238Z,998.44
2016-05-28T00:48:16.256Z,998.45
2016-05-28T00:49:16.274Z,998.43
2016-05-28T00:50:16.308Z,998.42
2016-05-28T00:51:16.311Z,998.4
2016-05-28T00:52:16.329Z,998.41
2016-05-28T00:53:16.347Z,998.43
2016-05-28T00:54:16.381Z,998.44
2016-05-28T00:55:16.400Z,998.42
2016-05-28T00:56:16.402Z,998.37
2016-05-28T00:57:16.437Z,998.46
2016-05-28T00:58:16.455Z,998.41
2016-05-28T00:59:16.472Z,998.4
2016-05-28T01:00:16.492Z,998.4
2016-05-28T01:01:16.510Z,998.38
2016-05-28T01:02:16.527Z,998.37
2016-05-28T01:03:16.561Z,998.33
2016-05-28T01:04:16.564Z,998.28
2016-05-28T01:05:16.817Z,998.3
2016-05-28T01:06:16.616Z,998.24
2016-05-28T01:07:16.619Z,998.23
2016-05-28T01:08:16.638Z,998.24
2016-05-28T01:09:16.672Z,998.22
2016-05-28T01:10:16.753Z,998.21
2016-05-28T01:11:16.692Z,998.18
2016-05-28T01:12:16.726Z,998.23
2016-05-28T01:13:16.745Z,998.29
2016-05-28T01:14:16.810Z,998.31
2016-05-28T01:15:16.781Z,998.29
2016-05-28T01:16:16.801Z,998.31
2016-05-28T01:17:16.818Z,998.32
2016-05-28T01:18:16.837Z,998.32
2016-05-28T01:19:16.854Z,998.34
2016-05-28T01:20:17.264Z,998.35
2016-05-28T01:21:16.892Z,998.4
2016-05-28T01:22:16.909Z,998.36
2016-05-28T01:23:16.928Z,998.41
2016-05-28T01:24:16.947Z,998.4
2016-05-28T01:25:16.964Z,998.4
2016-05-28T01:26:16.983Z,998.42
2016-05-28T01:27:17.000Z,998.41
2016-05-28T01:28:17.036Z,998.4
2016-05-28T01:29:17.039Z,998.43
2016-05-28T01:30:17.056Z,998.39
2016-05-28T01:31:17.091Z,998.42
2016-05-28T01:32:17.093Z,998.43
2016-05-28T01:33:17.127Z,998.44
2016-05-28T01:34:17.130Z,998.42
2016-05-28T01:35:17.147Z,998.42
2016-05-28T01:36:17.166Z,998.42
2016-05-28T01:37:17.200Z,998.41
2016-05-28T01:38:17.218Z,998.4
2016-05-28T01:39:17.237Z,998.4
2016-05-28T01:40:17.254Z,998.39
2016-05-28T01:41:17.274Z,998.39
2016-05-28T01:42:17.291Z,998.35
2016-05-28T01:43:17.326Z,998.4
2016-05-28T01:44:17.329Z,998.37
2016-05-28T01:45:17.346Z,998.39
2016-05-28T01:46:17.381Z,998.37
2016-05-28T01:47:17.384Z,998.41
2016-05-28T01:48:17.401Z,998.42
2016-05-28T01:49:17.420Z,998.41
2016-05-28T01:50:17.438Z,998.41
2016-05-28T01:51:17.456Z,998.4
2016-05-28T01:52:17.475Z,998.39
2016-05-28T01:53:17.492Z,998.4
2016-05-28T01:54:17.511Z,998.39
2016-05-28T01:55:17.530Z,998.42
2016-05-28T01:56:17.548Z,998.36
2016-05-28T01:57:17.567Z,998.35
2016-05-28T01:58:17.600Z,998.39
2016-05-28T01:59:17.603Z,998.31
2016-05-28T02:00:17.622Z,998.32
2016-05-28T02:01:17.639Z,998.3
2016-05-28T02:02:17.658Z,998.29
2016-05-28T02:03:17.676Z,998.31
2016-05-28T02:04:17.710Z,998.27
2016-05-28T02:05:17.728Z,998.25
2016-05-28T02:06:17.747Z,998.25
2016-05-28T02:07:17.766Z,998.27
2016-05-28T02:08:17.783Z,998.26
2016-05-28T02:09:17.786Z,998.27
2016-05-28T02:10:17.821Z,998.24
2016-05-28T02:11:17.839Z,998.27
2016-05-28T02:12:17.857Z,998.27
2016-05-28T02:13:17.859Z,998.28
2016-05-28T02:14:17.893Z,998.3
2016-05-28T02:15:17.912Z,998.31
2016-05-28T02:16:17.930Z,998.37
2016-05-28T02:17:17.948Z,998.36
2016-05-28T02:18:17.967Z,998.28
2016-05-28T02:19:17.984Z,998.3
2016-05-28T02:20:18.004Z,998.27
2016-05-28T02:21:18.021Z,998.27
2016-05-28T02:22:18.039Z,998.31
2016-05-28T02:23:18.059Z,998.29
2016-05-28T02:24:18.076Z,998.29
2016-05-28T02:25:18.095Z,998.29
2016-05-28T02:26:18.114Z,998.29
2016-05-28T02:27:18.131Z,998.29
2016-05-28T02:28:18.165Z,998.29
2016-05-28T02:29:18.168Z,998.3
2016-05-28T02:30:18.186Z,998.32
2016-05-28T02:31:18.205Z,998.33
2016-05-28T02:32:18.223Z,998.29
2016-05-28T02:33:18.241Z,998.34
2016-05-28T02:34:18.275Z,998.31
2016-05-28T02:35:18.277Z,998.37
2016-05-28T02:36:18.296Z,998.35
2016-05-28T02:37:18.315Z,998.35
2016-05-28T02:38:18.349Z,998.37
2016-05-28T02:39:18.352Z,998.3
2016-05-28T02:40:18.369Z,998.33
2016-05-28T02:41:18.404Z,998.34
2016-05-28T02:42:18.421Z,998.31
2016-05-28T02:43:18.425Z,998.35
2016-05-28T02:44:18.458Z,998.3
2016-05-28T02:45:18.460Z,998.33
2016-05-28T02:46:18.496Z,998.32
2016-05-28T02:47:18.498Z,998.31
2016-05-28T02:48:18.532Z,998.29
2016-05-28T02:49:18.534Z,998.33
2016-05-28T02:50:18.553Z,998.29
2016-05-28T02:51:18.587Z,998.28
2016-05-28T02:52:18.605Z,998.29
2016-05-28T02:53:18.624Z,998.28
2016-05-28T02:54:18.641Z,998.32
2016-05-28T02:55:18.659Z,998.26
2016-05-28T02:56:18.678Z,998.31
2016-05-28T02:57:18.697Z,998.33
2016-05-28T02:58:18.714Z,998.27
2016-05-28T02:59:18.717Z,998.34
2016-05-28T03:00:18.751Z,998.28
2016-05-28T03:01:18.769Z,998.29
2016-05-28T03:02:18.789Z,998.3
2016-05-28T03:03:18.806Z,998.28
2016-05-28T03:04:18.825Z,998.28
2016-05-28T03:05:18.843Z,998.28
2016-05-28T03:06:18.846Z,998.27
2016-05-28T03:07:18.879Z,998.28
2016-05-28T03:08:18.898Z,998.33
2016-05-28T03:09:18.916Z,998.28
2016-05-28T03:10:18.935Z,998.27
2016-05-28T03:11:18.985Z,998.29
2016-05-28T03:12:18.972Z,998.29
2016-05-28T03:13:18.990Z,998.28
2016-05-28T03:14:19.008Z,998.3
2016-05-28T03:15:19.026Z,998.26
2016-05-28T03:16:19.044Z,998.25
2016-05-28T03:17:19.078Z,998.27
2016-05-28T03:18:19.082Z,998.29
2016-05-28T03:19:19.099Z,998.3
2016-05-28T03:20:19.118Z,998.33
2016-05-28T03:21:19.136Z,998.32
2016-05-28T03:22:19.154Z,998.33
2016-05-28T03:23:19.173Z,998.33
2016-05-28T03:24:19.191Z,998.37
2016-05-28T03:25:19.209Z,998.37
2016-05-28T03:26:19.228Z,998.38
2016-05-28T03:27:19.245Z,998.38
2016-05-28T03:28:19.264Z,998.39
2016-05-28T03:29:19.298Z,998.4
2016-05-28T03:30:19.301Z,998.4
2016-05-28T03:31:19.334Z,998.39
2016-05-28T03:32:19.353Z,998.39
2016-05-28T03:33:19.372Z,998.34
2016-05-28T03:34:19.374Z,998.35
2016-05-28T03:35:19.424Z,998.34
2016-05-28T03:36:19.427Z,998.36
2016-05-28T03:37:19.444Z,998.36
2016-05-28T03:38:19.463Z,998.38
2016-05-28T03:39:19.480Z,998.36
2016-05-28T03:40:19.499Z,998.38
2016-05-28T03:41:19.534Z,998.36
2016-05-28T03:42:19.536Z,998.37
2016-05-28T03:43:19.554Z,998.36
2016-05-28T03:44:19.574Z,998.35
2016-05-28T03:45:19.591Z,998.37
2016-05-28T03:46:19.610Z,998.39
2016-05-28T03:47:19.627Z,998.41
2016-05-28T03:48:19.646Z,998.41
2016-05-28T03:49:19.665Z,998.42
2016-05-28T03:50:19.683Z,998.42
2016-05-28T03:51:19.701Z,998.43
2016-05-28T03:52:19.720Z,998.41
2016-05-28T03:53:19.754Z,998.42
2016-05-28T03:54:19.757Z,998.41
2016-05-28T03:55:19.790Z,998.4
2016-05-28T03:56:19.808Z,998.41
2016-05-28T03:57:19.826Z,998.4
2016-05-28T03:58:19.845Z,998.39
2016-05-28T03:59:19.863Z,998.4
2016-05-28T04:00:19.881Z,998.38
2016-05-28T04:01:19.900Z,998.37
2016-05-28T04:02:19.918Z,998.4
2016-05-28T04:03:19.937Z,998.42
2016-05-28T04:04:19.955Z,998.42
2016-05-28T04:05:19.973Z,998.42
2016-05-28T04:06:19.992Z,998.4
2016-05-28T04:07:20.025Z,998.4
2016-05-28T04:08:20.027Z,998.42
2016-05-28T04:09:20.062Z,998.36
2016-05-28T04:10:20.080Z,998.35
2016-05-28T04:11:20.099Z,998.34
2016-05-28T04:12:20.117Z,998.36
2016-05-28T04:13:20.119Z,998.36
2016-05-28T04:14:20.154Z,998.34
2016-05-28T04:15:20.172Z,998.31
2016-05-28T04:16:20.191Z,998.31
2016-05-28T04:17:20.208Z,998.29
2016-05-28T04:18:20.227Z,998.33
2016-05-28T04:19:20.246Z,998.31
2016-05-28T04:20:20.513Z,998.3
2016-05-28T04:21:20.282Z,998.33
2016-05-28T04:22:20.300Z,998.29
2016-05-28T04:23:20.318Z,998.31
2016-05-28T04:24:20.337Z,998.3
2016-05-28T04:25:20.355Z,998.27
2016-05-28T04:26:20.389Z,998.31
2016-05-28T04:27:20.392Z,998.28
2016-05-28T04:28:20.409Z,998.27
2016-05-28T04:29:20.444Z,998.26
2016-05-28T04:30:20.462Z,998.33
2016-05-28T04:31:20.480Z,998.28
2016-05-28T04:32:20.498Z,998.29
2016-05-28T04:33:20.517Z,998.3
2016-05-28T04:34:20.535Z,998.28
2016-05-28T04:35:20.897Z,998.3
2016-05-28T04:36:20.572Z,998.26
2016-05-28T04:37:20.606Z,998.26
2016-05-28T04:38:20.625Z,998.28
2016-05-28T04:39:20.642Z,998.25
2016-05-28T04:40:20.661Z,998.27
2016-05-28T04:41:20.680Z,998.29
2016-05-28T04:42:20.697Z,998.26
2016-05-28T04:43:20.700Z,998.29
2016-05-28T04:44:20.735Z,998.32
2016-05-28T04:45:20.753Z,998.33
2016-05-28T04:46:20.771Z,998.31
2016-05-28T04:47:20.789Z,998.3
2016-05-28T04:48:20.808Z,998.29
2016-05-28T04:49:20.826Z,998.28
2016-05-28T04:50:20.844Z,998.27
2016-05-28T04:51:20.879Z,998.28
2016-05-28T04:52:20.896Z,998.28
2016-05-28T04:53:20.915Z,998.29
2016-05-28T04:54:20.933Z,998.26
2016-05-28T04:55:20.951Z,998.25
2016-05-28T04:56:20.970Z,998.27
2016-05-28T04:57:20.987Z,998.25
2016-05-28T04:58:21.006Z,998.25
2016-05-28T04:59:21.025Z,998.22
2016-05-28T05:00:21.059Z,998.27
2016-05-28T05:01:21.076Z,998.28
2016-05-28T05:02:21.095Z,998.23
2016-05-28T05:03:21.114Z,998.26
2016-05-28T05:04:21.131Z,998.25
2016-05-28T05:05:21.150Z,998.32
2016-05-28T05:06:21.168Z,998.3
2016-05-28T05:07:21.186Z,998.3
2016-05-28T05:08:21.215Z,998.3
2016-05-28T05:09:21.257Z,998.33
2016-05-28T05:10:21.331Z,998.32
2016-05-28T05:11:21.343Z,998.32
2016-05-28T05:12:21.401Z,998.29
2016-05-28T05:13:21.439Z,998.26
2016-05-28T05:14:21.466Z,998.29
2016-05-28T05:15:21.493Z,998.27
2016-05-28T05:16:21.519Z,998.29
2016-05-28T05:17:21.547Z,998.28
2016-05-28T05:18:21.573Z,998.26
2016-05-28T05:19:21.609Z,998.26
2016-05-28T05:20:21.630Z,998.26
2016-05-28T05:21:21.637Z,998.31
2016-05-28T05:22:21.674Z,998.25
2016-05-28T05:23:21.693Z,998.22
2016-05-28T05:24:21.730Z,998.25
2016-05-28T05:25:21.733Z,998.23
2016-05-28T05:26:21.768Z,998.24
2016-05-28T05:27:21.788Z,998.25
2016-05-28T05:28:21.791Z,998.19
2016-05-28T05:29:21.825Z,998.25
2016-05-28T05:30:21.843Z,998.26
2016-05-28T05:31:21.863Z,998.27
2016-05-28T05:32:21.882Z,998.2
2016-05-28T05:33:21.900Z,998.23
2016-05-28T05:34:21.980Z,998.2
2016-05-28T05:35:21.951Z,998.23
2016-05-28T05:36:21.971Z,998.22
2016-05-28T05:37:21.988Z,998.23
2016-05-28T05:38:22.007Z,998.21
2016-05-28T05:39:22.025Z,998.17
2016-05-28T05:40:22.043Z,998.24
2016-05-28T05:41:22.078Z,998.23
2016-05-28T05:42:22.096Z,998.21
2016-05-28T05:43:22.114Z,998.22
2016-05-28T05:44:22.132Z,998.21
2016-05-28T05:45:22.151Z,998.21
2016-05-28T05:46:22.185Z,998.17
2016-05-28T05:47:22.187Z,998.21
2016-05-28T05:48:22.205Z,998.21
2016-05-28T05:49:22.240Z,998.19
2016-05-28T05:50:22.258Z,998.15
2016-05-28T05:51:22.276Z,998.15
2016-05-28T05:52:22.295Z,998.16
2016-05-28T05:53:22.313Z,998.13
2016-05-28T05:54:22.331Z,998.16
2016-05-28T05:55:22.349Z,998.16
2016-05-28T05:56:22.369Z,998.15
2016-05-28T05:57:22.386Z,998.14
2016-05-28T05:58:22.420Z,998.18
2016-05-28T05:59:22.439Z,998.16
2016-05-28T06:00:22.457Z,998.15
2016-05-28T06:01:22.475Z,998.16
2016-05-28T06:02:22.493Z,998.15
2016-05-28T06:03:22.528Z,998.16
2016-05-28T06:04:22.546Z,998.12
2016-05-28T06:05:22.596Z,998.14
2016-05-28T06:06:22.582Z,998.16
2016-05-28T06:07:22.600Z,998.12
2016-05-28T06:08:22.634Z,998.12
2016-05-28T06:09:22.638Z,998.14
2016-05-28T06:10:22.671Z,998.14
2016-05-28T06:11:22.720Z,998.15
2016-05-28T06:12:22.707Z,998.14
2016-05-28T06:13:22.726Z,998.15
2016-05-28T06:14:22.745Z,998.13
2016-05-28T06:15:22.762Z,998.2
2016-05-28T06:16:22.797Z,998.12
2016-05-28T06:17:22.800Z,998.13
2016-05-28T06:18:22.834Z,998.16
2016-05-28T06:19:22.851Z,998.09
2016-05-28T06:20:22.870Z,998.14
2016-05-28T06:21:22.889Z,998.13
2016-05-28T06:22:22.906Z,998.15
2016-05-28T06:23:22.925Z,998.16
2016-05-28T06:24:22.944Z,998.13
2016-05-28T06:25:22.977Z,998.18
2016-05-28T06:26:22.995Z,998.2
2016-05-28T06:27:23.014Z,998.2
2016-05-28T06:28:23.032Z,998.21
2016-05-28T06:29:23.050Z,998.23
2016-05-28T06:30:23.085Z,998.26
2016-05-28T06:31:23.102Z,998.27
2016-05-28T06:32:23.121Z,998.35
2016-05-28T06:33:23.139Z,998.33
2016-05-28T06:34:23.158Z,998.33
2016-05-28T06:35:23.176Z,998.36
2016-05-28T06:36:23.194Z,998.35
2016-05-28T06:37:23.228Z,998.35
2016-05-28T06:38:23.246Z,998.4
2016-05-28T06:39:23.265Z,998.36
2016-05-28T06:40:23.283Z,998.33
2016-05-28T06:41:23.301Z,998.35
2016-05-28T06:42:23.335Z,998.35
2016-05-28T06:43:23.354Z,998.37
2016-05-28T06:44:23.372Z,998.37
2016-05-28T06:45:23.390Z,998.37
2016-05-28T06:46:23.408Z,998.38
2016-05-28T06:47:23.443Z,998.4
2016-05-28T06:48:23.461Z,998.42
2016-05-28T06:49:23.604Z,998.4
2016-05-28T06:50:23.794Z,998.43
2016-05-28T06:51:23.531Z,998.41
2016-05-28T06:52:23.550Z,998.45
2016-05-28T06:53:23.567Z,998.51
2016-05-28T06:54:23.587Z,998.43
2016-05-28T06:55:23.605Z,998.42
2016-05-28T06:56:23.638Z,998.42
2016-05-28T06:57:23.658Z,998.38
2016-05-28T06:58:23.676Z,998.34
2016-05-28T06:59:23.694Z,998.34
2016-05-28T07:00:23.727Z,998.34
2016-05-28T07:01:23.730Z,998.33
2016-05-28T07:02:23.764Z,998.28
2016-05-28T07:03:23.782Z,998.24
2016-05-28T07:04:24.332Z,998.23
2016-05-28T07:05:23.835Z,998.2
2016-05-28T07:06:23.852Z,998.19
2016-05-28T07:07:23.871Z,998.17
2016-05-28T07:08:23.890Z,998.14
2016-05-28T07:09:23.908Z,998.11
2016-05-28T07:10:23.942Z,998.12
2016-05-28T07:11:23.976Z,998.16
2016-05-28T07:12:23.978Z,998.13
2016-05-28T07:13:24.012Z,998.16
2016-05-28T07:14:24.031Z,998.14
2016-05-28T07:15:24.048Z,998.2
2016-05-28T07:16:24.068Z,998.23
2016-05-28T07:17:24.086Z,998.18
2016-05-28T07:18:24.120Z,998.17
2016-05-28T07:19:24.153Z,998.16
2016-05-28T07:20:24.156Z,998.17
2016-05-28T07:21:24.174Z,998.16
2016-05-28T07:22:24.209Z,998.15
2016-05-28T07:23:24.227Z,998.14
2016-05-28T07:24:24.245Z,998.17
2016-05-28T07:25:24.264Z,998.11
2016-05-28T07:26:24.281Z,998.11
2016-05-28T07:27:24.316Z,998.13
2016-05-28T07:28:24.318Z,998.11
2016-05-28T07:29:24.369Z,998.1
2016-05-28T07:30:24.371Z,998.1
2016-05-28T07:31:24.404Z,998.1
2016-05-28T07:32:24.408Z,998.12
2016-05-28T07:33:24.442Z,998.17
2016-05-28T07:34:24.460Z,998.15
2016-05-28T07:35:24.477Z,998.14
2016-05-28T07:36:24.512Z,998.1
2016-05-28T07:37:24.530Z,998.1
2016-05-28T07:38:24.548Z,998.1
2016-05-28T07:39:24.566Z,998.12
2016-05-28T07:40:24.601Z,998.1
2016-05-28T07:41:24.619Z,998.14
2016-05-28T07:42:24.637Z,998.12
2016-05-28T07:43:24.656Z,998.14
2016-05-28T07:44:24.690Z,998.14
2016-05-28T07:45:24.707Z,998.14
2016-05-28T07:46:24.726Z,998.12
2016-05-28T07:47:24.744Z,998.11
2016-05-28T07:48:24.762Z,998.13
2016-05-28T07:49:24.781Z,998.12
2016-05-28T07:50:24.800Z,998.14
2016-05-28T07:51:24.833Z,998.12
2016-05-28T07:52:24.851Z,998.14
2016-05-28T07:53:24.870Z,998.07
2016-05-28T07:54:24.888Z,998.14
2016-05-28T07:55:24.922Z,998.11
2016-05-28T07:56:24.941Z,998.08
2016-05-28T07:57:24.975Z,998.1
2016-05-28T07:58:24.993Z,998.08
2016-05-28T07:59:25.011Z,998.07
2016-05-28T08:00:25.029Z,998.1
2016-05-28T08:01:25.048Z,998.06
2016-05-28T08:02:25.082Z,998.02
2016-05-28T08:03:25.100Z,998.02
2016-05-28T08:04:25.118Z,998
2016-05-28T08:05:25.136Z,997.97
2016-05-28T08:06:25.155Z,998.01
2016-05-28T08:07:25.173Z,997.96
2016-05-28T08:08:25.207Z,997.93
2016-05-28T08:09:25.226Z,998
2016-05-28T08:10:25.244Z,997.98
2016-05-28T08:11:25.277Z,998.01
2016-05-28T08:12:25.296Z,997.99
2016-05-28T08:13:25.330Z,998.01
2016-05-28T08:14:25.348Z,998.03
2016-05-28T08:15:25.367Z,998.01
2016-05-28T08:16:25.385Z,997.96
2016-05-28T08:17:25.403Z,998
2016-05-28T08:18:25.437Z,998.03
2016-05-28T08:19:25.456Z,998.01
2016-05-28T08:20:25.520Z,998.04
2016-05-28T08:21:25.493Z,998.03
2016-05-28T08:22:25.526Z,997.98
2016-05-28T08:23:25.544Z,998.02
2016-05-28T08:24:25.562Z,998.02
2016-05-28T08:25:25.581Z,998.02
2016-05-28T08:26:25.614Z,998.03
2016-05-28T08:27:25.634Z,998.04
2016-05-28T08:28:25.652Z,998.06
2016-05-28T08:29:25.686Z,998.02
2016-05-28T08:30:25.704Z,998.04
2016-05-28T08:31:25.722Z,997.98
2016-05-28T08:32:25.756Z,997.97
2016-05-28T08:33:25.774Z,997.96
2016-05-28T08:34:26.371Z,997.9
2016-05-28T08:35:25.827Z,997.88
2016-05-28T08:36:25.844Z,997.87
2016-05-28T08:37:25.863Z,997.89
2016-05-28T08:38:25.897Z,997.83
2016-05-28T08:39:25.932Z,997.79
2016-05-28T08:40:25.935Z,997.82
2016-05-28T08:41:25.952Z,997.78
2016-05-28T08:42:25.986Z,997.76
2016-05-28T08:43:27.801Z,997.73
2016-05-28T08:44:26.023Z,997.68
2016-05-28T08:45:26.041Z,997.7
2016-05-28T08:46:26.076Z,997.73
2016-05-28T08:47:26.093Z,997.73
2016-05-28T08:48:27.534Z,997.75
2016-05-28T08:49:26.146Z,997.75
2016-05-28T08:50:26.508Z,997.68
2016-05-28T08:51:26.182Z,997.74
2016-05-28T08:52:26.200Z,997.72
2016-05-28T08:53:26.235Z,997.73
2016-05-28T08:54:26.253Z,997.78
2016-05-28T08:55:26.271Z,997.76
2016-05-28T08:56:26.321Z,997.73
2016-05-28T08:57:26.339Z,997.67
2016-05-28T08:58:26.341Z,997.75
2016-05-28T08:59:26.375Z,997.71
2016-05-28T09:00:26.394Z,997.72
2016-05-28T09:01:26.428Z,997.74
2016-05-28T09:02:26.446Z,997.77
2016-05-28T09:03:26.465Z,997.77
2016-05-28T09:04:26.483Z,997.81
2016-05-28T09:05:26.517Z,997.79
2016-05-28T09:06:26.550Z,997.84
2016-05-28T09:07:26.553Z,997.82
2016-05-28T09:08:26.571Z,997.83
2016-05-28T09:09:26.605Z,997.82
2016-05-28T09:10:26.624Z,997.85
2016-05-28T09:11:26.658Z,997.77
2016-05-28T09:12:26.676Z,997.8
2016-05-28T09:13:26.694Z,997.74
2016-05-28T09:14:26.713Z,997.76
2016-05-28T09:15:26.747Z,997.77
2016-05-28T09:16:26.765Z,997.81
2016-05-28T09:17:26.784Z,997.74
2016-05-28T09:18:26.802Z,997.75
2016-05-28T09:19:26.929Z,997.73
2016-05-28T09:20:26.854Z,997.71
2016-05-28T09:21:26.887Z,997.7
2016-05-28T09:22:26.907Z,997.68
2016-05-28T09:23:26.925Z,997.72
2016-05-28T09:24:26.959Z,997.68
2016-05-28T09:25:26.977Z,997.73
2016-05-28T09:26:26.996Z,997.69
2016-05-28T09:27:27.029Z,997.68
2016-05-28T09:28:27.047Z,997.68
2016-05-28T09:29:27.066Z,997.64
2016-05-28T09:30:27.100Z,997.66
2016-05-28T09:31:27.118Z,997.65
2016-05-28T09:32:27.137Z,997.64
2016-05-28T09:33:27.154Z,997.66
2016-05-28T09:34:27.235Z,997.6
2016-05-28T09:35:27.207Z,997.67
2016-05-28T09:36:27.225Z,997.64
2016-05-28T09:37:27.258Z,997.63
2016-05-28T09:38:27.277Z,997.61
2016-05-28T09:39:27.311Z,997.58
2016-05-28T09:40:27.329Z,997.56
2016-05-28T09:41:27.349Z,997.58
2016-05-28T09:42:27.366Z,997.57
2016-05-28T09:43:27.400Z,997.64
2016-05-28T09:44:27.418Z,997.67
2016-05-28T09:45:27.452Z,997.7
2016-05-28T09:46:27.471Z,997.61
2016-05-28T09:47:27.490Z,997.59
2016-05-28T09:48:27.524Z,997.58
2016-05-28T09:49:27.541Z,997.63
2016-05-28T09:50:27.559Z,997.61
2016-05-28T09:51:27.593Z,997.64
2016-05-28T09:52:27.612Z,997.58
2016-05-28T09:53:27.645Z,997.54
2016-05-28T09:54:27.664Z,997.48
2016-05-28T09:55:27.682Z,997.5
2016-05-28T09:56:27.701Z,997.51
2016-05-28T09:57:27.734Z,997.39
2016-05-28T09:58:27.753Z,997.39
2016-05-28T09:59:27.787Z,997.39
2016-05-28T10:00:27.806Z,997.37
2016-05-28T10:01:27.823Z,997.32
2016-05-28T10:02:27.857Z,997.36
2016-05-28T10:03:27.875Z,997.39
2016-05-28T10:04:27.911Z,997.37
2016-05-28T10:05:27.928Z,997.32
2016-05-28T10:06:27.946Z,997.33
2016-05-28T10:07:27.965Z,997.3
2016-05-28T10:08:27.999Z,997.31
2016-05-28T10:09:28.017Z,997.37
2016-05-28T10:10:28.036Z,997.32
2016-05-28T10:11:28.070Z,997.35
2016-05-28T10:12:28.088Z,997.38
2016-05-28T10:13:28.121Z,997.42
2016-05-28T10:14:28.140Z,997.46
2016-05-28T10:15:28.174Z,997.44
2016-05-28T10:16:28.193Z,997.44
2016-05-28T10:17:28.211Z,997.42
2016-05-28T10:18:28.244Z,997.41
2016-05-28T10:19:28.263Z,997.39
2016-05-28T10:20:28.328Z,997.4
2016-05-28T10:21:28.299Z,997.35
2016-05-28T10:22:29.005Z,997.39
2016-05-28T10:23:28.368Z,997.4
2016-05-28T10:24:28.385Z,997.38
2016-05-28T10:25:28.419Z,997.41
2016-05-28T10:26:28.423Z,997.43
2016-05-28T10:27:29.878Z,997.46
2016-05-28T10:28:28.490Z,997.45
2016-05-28T10:29:28.508Z,997.43
2016-05-28T10:30:28.526Z,997.42
2016-05-28T10:31:28.545Z,997.39
2016-05-28T10:32:28.595Z,997.43
2016-05-28T10:33:28.597Z,997.43
2016-05-28T10:34:28.819Z,997.41
2016-05-28T10:35:28.650Z,997.39
2016-05-28T10:36:28.667Z,997.41
2016-05-28T10:37:28.702Z,997.39
2016-05-28T10:38:28.719Z,997.4
2016-05-28T10:39:28.754Z,997.39
2016-05-28T10:40:28.772Z,997.43
2016-05-28T10:41:28.791Z,997.39
2016-05-28T10:42:28.824Z,997.37
2016-05-28T10:43:28.843Z,997.34
2016-05-28T10:44:28.861Z,997.31
2016-05-28T10:45:28.895Z,997.34
2016-05-28T10:46:28.913Z,997.33
2016-05-28T10:47:28.947Z,997.33
2016-05-28T10:48:28.981Z,997.32
2016-05-28T10:49:28.999Z,997.29
2016-05-28T10:50:29.018Z,997.33
2016-05-28T10:51:29.037Z,997.33
2016-05-28T10:52:29.070Z,997.36
2016-05-28T10:53:29.088Z,997.32
2016-05-28T10:54:29.123Z,997.3
2016-05-28T10:55:29.141Z,997.26
2016-05-28T10:56:29.159Z,997.29
2016-05-28T10:57:29.193Z,997.25
2016-05-28T10:58:29.212Z,997.21
2016-05-28T10:59:29.229Z,997.27
2016-05-28T11:00:30.264Z,997.26
2016-05-28T11:01:29.281Z,997.29
2016-05-28T11:02:29.317Z,997.26
2016-05-28T11:03:29.334Z,997.23
2016-05-28T11:04:29.353Z,997.24
2016-05-28T11:05:29.402Z,997.21
2016-05-28T11:06:29.405Z,997.27
2016-05-28T11:07:29.423Z,997.29
2016-05-28T11:08:29.457Z,997.38
2016-05-28T11:09:29.475Z,997.41
2016-05-28T11:10:29.494Z,997.42
2016-05-28T11:11:29.527Z,997.44
2016-05-28T11:12:29.546Z,997.34
2016-05-28T11:13:29.580Z,997.33
2016-05-28T11:14:29.599Z,997.4
2016-05-28T11:15:29.632Z,997.34
2016-05-28T11:16:29.650Z,997.39
2016-05-28T11:17:29.685Z,997.31
2016-05-28T11:18:29.703Z,997.3
2016-05-28T11:19:29.737Z,997.29
2016-05-28T11:20:29.755Z,997.29
2016-05-28T11:21:29.774Z,997.25
2016-05-28T11:22:29.808Z,997.2
2016-05-28T11:23:29.825Z,997.18
2016-05-28T11:24:29.859Z,997.2
2016-05-28T11:25:29.878Z,997.28
2016-05-28T11:26:29.896Z,997.25
2016-05-28T11:27:29.929Z,997.28
2016-05-28T11:28:29.948Z,997.24
2016-05-28T11:29:29.998Z,997.29
2016-05-28T11:30:30.001Z,997.18
2016-05-28T11:31:30.034Z,997.22
2016-05-28T11:32:30.053Z,997.23
2016-05-28T11:33:30.087Z,997.19
2016-05-28T11:34:30.121Z,997.22
2016-05-28T11:35:30.139Z,997.22
2016-05-28T11:36:30.172Z,997.22
2016-05-28T11:37:30.191Z,997.21
2016-05-28T11:38:30.209Z,997.17
2016-05-28T11:39:30.244Z,997.16
2016-05-28T11:40:30.261Z,997.14
2016-05-28T11:41:30.297Z,997.12
2016-05-28T11:42:30.314Z,997.11
2016-05-28T11:43:30.347Z,997.14
2016-05-28T11:44:30.366Z,997.15
2016-05-28T11:45:30.400Z,997.14
2016-05-28T11:46:30.419Z,997.11
2016-05-28T11:47:30.453Z,997.12
2016-05-28T11:48:30.471Z,997.12
2016-05-28T11:49:30.488Z,997.09
2016-05-28T11:50:30.617Z,997.09
2016-05-28T11:51:30.557Z,997.08
2016-05-28T11:52:30.576Z,997.09
2016-05-28T11:53:30.609Z,997.06
2016-05-28T11:54:30.627Z,997.06
2016-05-28T11:55:30.662Z,996.99
2016-05-28T11:56:30.680Z,997.02
2016-05-28T11:57:30.714Z,997.06
2016-05-28T11:58:30.732Z,997
2016-05-28T11:59:30.765Z,996.95
2016-05-28T12:00:30.785Z,996.97
2016-05-28T12:01:30.803Z,997.04
2016-05-28T12:02:30.837Z,997.03
2016-05-28T12:03:30.870Z,996.94
2016-05-28T12:04:30.890Z,996.89
2016-05-28T12:05:30.923Z,996.93
2016-05-28T12:06:30.941Z,996.92
2016-05-28T12:07:30.976Z,996.92
2016-05-28T12:08:30.993Z,996.91
2016-05-28T12:09:31.028Z,996.87
2016-05-28T12:10:31.046Z,996.84
2016-05-28T12:11:31.080Z,996.87
2016-05-28T12:12:31.097Z,996.81
2016-05-28T12:13:31.133Z,996.83
2016-05-28T12:14:31.135Z,996.74
2016-05-28T12:15:31.184Z,996.71
2016-05-28T12:16:31.186Z,996.75
2016-05-28T12:17:31.221Z,996.69
2016-05-28T12:18:31.255Z,996.7
2016-05-28T12:19:31.930Z,996.74
2016-05-28T12:20:31.385Z,996.74
2016-05-28T12:21:31.325Z,996.75
2016-05-28T12:22:31.359Z,996.77
2016-05-28T12:23:31.377Z,996.78
2016-05-28T12:24:31.396Z,996.76
2016-05-28T12:25:31.430Z,996.67
2016-05-28T12:26:31.448Z,996.71
2016-05-28T12:28:31.500Z,996.65
2016-05-28T12:29:31.519Z,996.65
2016-05-28T12:30:31.553Z,996.69
2016-05-28T12:31:31.570Z,996.69
2016-05-28T12:32:32.948Z,996.71